Impacts METAR Board
IDs:

KLGA - New York/La Guardia, NY, US

Updated at: 1000 UTC 16 Aug 2018
Potential Impact None Slight Moderate High
Time 15/22Z 15/23Z 16/00Z 16/01Z 16/02Z 16/03Z 16/04Z 16/05Z 16/06Z 16/07Z 16/08Z 16/09Z 16/10Z
Temp90 89 88 87 86 85 84 83 83 82 81 80 79
Dewpt62 63 65 66 67 68 68 69 69 69 69 69 69
Altim29.89 29.90 29.92 29.94 29.96 29.96 29.96 29.97 29.97 29.97 29.98 29.99 30.01
VIS10 10 10 10 10 10 10 10 10 10 10 10 10
CIG-- 250 -- -- 260 250 250 250 -- 250 250 250 --
CoverSCTBKNSCTSCTBKNBKNBKNBKNSCTBKNBKNBKNSCT
FltCatVFRVFRVFRVFRVFRVFRVFRVFRVFRVFRVFRVFRVFR
WX--------------------------
WDir2902602702502402802902902803002900320
WSpd9 13 10 10 8 6 7 8 7 3 5 3 7
WGst-- -- -- -- -- -- -- -- -- -- -- -- --
Raw hourly METARs
KLGA 152151Z 29009KT 10SM FEW065 FEW200 SCT250 32/17 A2989 RMK AO2 SLP123 T03220167
KLGA 152251Z 26013KT 10SM FEW065 SCT200 BKN250 32/17 A2990 RMK AO2 SLP126 T03170172
KLGA 152351Z 27010KT 10SM FEW065 FEW180 SCT250 31/18 A2992 RMK AO2 SLP132 T03110183 10328 20306 53009
KLGA 160051Z 25010KT 10SM FEW060 FEW180 SCT250 31/19 A2994 RMK AO2 SLP137 T03060189
KLGA 160151Z 24008KT 10SM FEW180 BKN260 30/19 A2996 RMK AO2 SLP145 T03000194
KLGA 160251Z 28006KT 10SM BKN250 29/20 A2996 RMK AO2 SLP145 T02940200 51013
KLGA 160351Z 29007KT 10SM BKN250 29/20 A2996 RMK AO2 SLP146 T02890200
KLGA 160451Z 29008KT 10SM BKN250 28/21 A2997 RMK AO2 SLP149 T02830206 403280228
KLGA 160551Z 28007KT 10SM SCT250 28/21 A2997 RMK AO2 SLP147 T02830206 10311 20278 50002
KLGA 160651Z 30003KT 10SM BKN250 28/21 A2997 RMK AO2 SLP149 T02780206
KLGA 160751Z 29005KT 10SM BKN250 27/21 A2998 RMK AO2 SLP152 T02720206
KLGA 160851Z VRB03KT 10SM BKN250 27/21 A2999 RMK AO2 SLP155 T02670206 53008
KLGA 160951Z 32007KT 10SM SCT250 26/21 A3001 RMK AO2 SLP161 T02610206



Page loaded:  10:28 UTC  |   03:28 AM Pacific  |   04:28 AM Mountain  |   05:28 AM Central  |   06:28 AM Eastern

 

ADVISORIES

FORECASTS

FORECASTS

OBSERVATIONS

USER TOOLS

ABOUT US